aviador You're here:

SULS Decoded Metar

MALDONADO in URUGUAY
Report Time2018-06-23 05:00:00
UTC Time2018-06-23 06:08:42
Flight Rules Old
Wind060° at 05 kt
W.Decomp.*RWY 08: 4.9 kt HW 1 kt LCW
RWY 01: 2.6 kt HW 4.2 kt RCW
W.Rank060° ranks 4
Current wind is below 060° avg. (8.0)
Visibility9999 m
Phenomena:N/A
Clouds:N/A
Expected CloudBase > 3,200 ft AGL from Temp-Dew spread
CeilingNone
Temp12°C (ISA -3)
Dew Point04°C (58% RH)
AAT8.9°C
QNH1011 hPa
Density Alt-56 ft
Elevation98 ft
Report Wrong Elevation
Raw Report
SULS 230500Z 06005KT CAVOK 12/04 Q1011=

Extra information for SULS:More info

Metar Taf Metar & Taf Last 4 Metars F.Rules Stats Wind Profile Meteogram Temp Stats Airport Information Weather charts Add Link Nearby VenuesMetar ALERT Operation Metar Decoded Social comments